»·PEaware :: N799DS KWJF-KBUR

N799DS :: KWJF-KBUR

FLIGHT INFORMATION

Flight Status: Arrived
Operator: Privately registered:
United States
More flights under this callsign
Pilot: Wolfgang B. (15069)
Aircraft: CESSNA 172 SKYHAWK
(C172)
More flights by this aircraft type
Origin: KWJF Gen Fox
United States
Destination: KBUR Bob Hope-Burbank
United States
More flights between these airports :: More routes between these airports
Route: +PMD PMD240 LYNXX VNY329 VNY
File this flight plan on PilotEdge
Remarks:
Altitude:
(Current/Filed)
8,000ft
Speed:
(Current/Filed)
115kts
Departed: 06-May-17 06:19 PM
Arrived: 06-May-17 07:02 PM
Distance/Time
Traveled:
33nm/0:43
Distance/Time
To Go:
Arrived

Flight Plot

Page will automatically refresh every two minutes.


Map Options




Map Legend


Flown Route
Filed Route
Departure Airport
Arrival Airport
Navaid (VOR, NDB)
Fix

Horizontal Profiles

Position Reports

Time Latitude Longitude Heading Altitude Ground
Speed
06-May-17 17:52 34.739076 -118.217238 253 2343ft 0kts
06-May-17 17:53 34.739076 -118.217238 253 2343ft 0kts
06-May-17 17:54 34.739076 -118.217238 253 2343ft 0kts
06-May-17 17:55 34.739076 -118.217238 253 2343ft 0kts
06-May-17 17:56 34.739076 -118.217238 253 2343ft 0kts
06-May-17 17:57 34.739076 -118.217238 253 2343ft 0kts
06-May-17 17:58 34.739076 -118.217238 253 2343ft 0kts
06-May-17 17:59 34.739076 -118.217238 253 2343ft 0kts
06-May-17 18:00 34.739076 -118.217238 253 2343ft 0kts
06-May-17 18:01 34.739076 -118.217238 253 2343ft 0kts
06-May-17 18:02 34.739076 -118.217238 253 2343ft 0kts
06-May-17 18:03 34.739076 -118.217238 253 2343ft 0kts
06-May-17 18:04 34.739076 -118.217238 253 2343ft 0kts
06-May-17 18:05 34.739076 -118.217238 253 2343ft 0kts
06-May-17 18:06 34.739096 -118.217403 304 2343ft 5kts
06-May-17 18:07 34.740686 -118.216344 73 2342ft 21kts
06-May-17 18:08 34.742753 -118.208556 80 2336ft 38kts
06-May-17 18:09 34.743435 -118.207009 201 2332ft 0kts
06-May-17 18:10 34.739074 -118.217223 253 2343ft 0kts
06-May-17 18:11 34.739064 -118.217261 250 2343ft 2kts
06-May-17 18:12 34.740765 -118.216085 74 2342ft 27kts
06-May-17 18:13 34.741974 -118.211493 69 2339ft 26kts
06-May-17 18:14 34.743253 -118.207115 13 2336ft 0kts
06-May-17 18:15 34.743253 -118.207114 15 2336ft 0kts
06-May-17 18:16 34.743256 -118.207113 19 2336ft 0kts
06-May-17 18:17 34.743258 -118.207113 18 2336ft 0kts
06-May-17 18:18 34.743261 -118.207111 27 2336ft 0kts
06-May-17 18:19 34.743261 -118.207111 24 2336ft 0kts
06-May-17 18:20 34.743903 -118.207938 253 2336ft 3kts
06-May-17 18:21 34.742575 -118.218662 253 2655ft 61kts
06-May-17 18:22 34.734891 -118.222953 117 3383ft 94kts
06-May-17 18:23 34.727589 -118.195580 147 4187ft 83kts
06-May-17 18:24 34.714951 -118.172706 141 4979ft 84kts
06-May-17 18:25 34.700505 -118.152452 147 5694ft 81kts
06-May-17 18:26 34.684484 -118.132307 153 5962ft 94kts
06-May-17 18:27 34.669179 -118.111223 159 6215ft 77kts
06-May-17 18:28 34.653449 -118.092801 158 6922ft 77kts
06-May-17 18:29 34.637413 -118.074715 154 7590ft 79kts
06-May-17 18:30 34.627238 -118.087782 243 8009ft 87kts
06-May-17 18:31 34.619218 -118.119951 246 7995ft 104kts
06-May-17 18:32 34.611534 -118.153835 247 7994ft 105kts
06-May-17 18:33 34.603970 -118.187830 246 7996ft 106kts
06-May-17 18:34 34.596349 -118.222125 246 7996ft 106kts
06-May-17 18:35 34.588602 -118.256875 247 7993ft 107kts
06-May-17 18:36 34.580781 -118.291825 244 7995ft 107kts
06-May-17 18:37 34.572960 -118.326707 246 8000ft 107kts
06-May-17 18:38 34.565168 -118.361393 247 8002ft 105kts
06-May-17 18:39 34.557529 -118.395387 249 8037ft 104kts
06-May-17 18:40 34.549920 -118.429240 251 8077ft 103kts
06-May-17 18:41 34.535264 -118.456739 211 8112ft 106kts
06-May-17 18:42 34.508571 -118.472344 212 7480ft 109kts
06-May-17 18:43 34.480966 -118.488955 211 6725ft 113kts
06-May-17 18:44 34.452261 -118.506419 211 6217ft 118kts
06-May-17 18:45 34.421779 -118.523402 208 6122ft 126kts
06-May-17 18:46 34.391775 -118.542207 212 6193ft 124kts
06-May-17 18:47 34.363636 -118.567047 212 6164ft 128kts
06-May-17 18:48 34.335833 -118.587844 212 6112ft 115kts
06-May-17 18:49 34.309330 -118.604930 212 6077ft 108kts
06-May-17 18:50 34.283493 -118.622671 212 6044ft 107kts
06-May-17 18:51 34.258355 -118.640971 213 5600ft 106kts
06-May-17 18:52 34.236092 -118.658284 212 4958ft 102kts
06-May-17 18:53 34.212705 -118.649224 113 4095ft 129kts
06-May-17 18:54 34.205292 -118.612178 111 3997ft 102kts
06-May-17 18:55 34.200021 -118.578311 90 4037ft 111kts
06-May-17 18:56 34.199820 -118.542792 95 3588ft 107kts
06-May-17 18:57 34.199719 -118.507901 99 3023ft 104kts
06-May-17 18:58 34.199992 -118.473472 93 2468ft 103kts
06-May-17 18:59 34.198765 -118.441696 92 1919ft 82kts
06-May-17 19:00 34.199180 -118.413276 106 1730ft 85kts
06-May-17 19:01 34.207249 -118.387692 78 1307ft 80kts
06-May-17 19:02 34.224103 -118.376479 87 1324ft 76kts
06-May-17 19:03 34.212605 -118.360485 176 794ft 50kts
06-May-17 19:04 34.208284 -118.359363 161 752ft 7kts
06-May-17 19:05 34.205958 -118.359876 181 742ft 0kts
06-May-17 19:06 34.205958 -118.359877 180 742ft 0kts
06-May-17 19:07 34.204682 -118.359489 168 737ft 21kts
06-May-17 19:08 34.200377 -118.358309 170 721ft 15kts
06-May-17 19:09 34.198932 -118.361903 275 721ft 28kts
06-May-17 19:10 34.200201 -118.364741 9 726ft 0kts

Navigation Log

Ident Type
Flight plan parsing failed, navigation log unavailable